Time;durP1;ratioP1;P1;durP2;ratioP2;P2;SDS_P1;SDS_P2;PMS_P1;PMS_P2;Temp;Humidity;BMP_temperature;BMP_pressure;BME280_temperature;BME280_humidity;BME280_pressure;Samples;Min_cycle;Max_cycle;Signal;HPM_P1;HPM_P2
2021/12/10 00:01:55;;;;;;;;;;;9.00;99.90;;;;;;4996285;28;19926;-81
2021/12/10 00:04:22;;;;;;;;;;;10.20;99.90;;;;;;5013856;28;19931;-80
2021/12/10 00:06:50;;;;;;;;;;;7.50;99.90;;;;;;4995524;28;20372;-81
2021/12/10 00:09:18;;;;;;;;;;;9.10;99.90;;;;;;4996573;28;20320;-81
2021/12/10 00:11:46;;;;;;;;;;;7.20;99.90;;;;;;4996360;28;20341;-81
2021/12/10 00:14:13;;;;;;;;;;;7.70;99.90;;;;;;4995079;28;19936;-81
2021/12/10 00:16:40;;;;;;;;;;;6.80;99.90;;;;;;5013427;28;20298;-81
2021/12/10 00:21:48;;;;;;;;;;;7.10;99.90;;;;;;5012804;28;19925;-83
2021/12/10 00:24:16;;;;;;;;;;;9.70;99.90;;;;;;4996081;28;20396;-81
2021/12/10 00:26:42;;;;;;;;;;;8.00;99.90;;;;;;4995472;28;20374;-81
2021/12/10 00:29:08;;;;;;;;;;;9.60;99.90;;;;;;4995635;28;19936;-81
2021/12/10 00:34:07;;;;;;;;;;;7.00;99.90;;;;;;4995474;28;19948;-81
2021/12/10 00:36:36;;;;;;;;;;;7.20;99.90;;;;;;4995335;28;19969;-80
2021/12/10 00:39:06;;;;;;;;;;;7.20;99.90;;;;;;5012561;28;19930;-81
2021/12/10 00:41:38;;;;;;;;;;;7.80;99.90;;;;;;4996039;28;19976;-80
2021/12/10 00:44:07;;;;;;;;;;;8.70;99.90;;;;;;5012922;28;19933;-81
2021/12/10 00:46:33;;;;;;;;;;;7.10;99.90;;;;;;5013078;28;19926;-81
2021/12/10 00:48:59;;;;;;;;;;;5.80;99.90;;;;;;4978623;28;19925;-80
2021/12/10 00:51:25;;;;;;;;;;;9.40;99.90;;;;;;5012697;28;20453;-81
2021/12/10 00:53:52;;;;;;;;;;;9.20;99.90;;;;;;5012974;28;19925;-83
2021/12/10 00:56:17;;;;;;;;;;;7.00;99.90;;;;;;5012729;28;19926;-81
2021/12/10 00:58:43;;;;;;;;;;;7.30;99.90;;;;;;4995566;28;19936;-81
2021/12/10 01:01:12;;;;;;;;;;;5.60;99.90;;;;;;4994824;28;19925;-80
2021/12/10 01:03:41;;;;;;;;;;;7.90;99.90;;;;;;4962709;28;20362;-81
2021/12/10 01:06:08;;;;;;;;;;;8.20;99.90;;;;;;5012212;28;19925;-81
2021/12/10 01:08:36;;;;;;;;;;;8.90;99.90;;;;;;5012799;28;20302;-80
2021/12/10 01:11:07;;;;;;;;;;;7.10;99.90;;;;;;5012473;28;19925;-80
2021/12/10 01:13:40;;;;;;;;;;;7.10;99.90;;;;;;4995673;28;20379;-81
2021/12/10 01:23:40;;;;;;;;;;;10.30;99.90;;;;;;4994872;28;19925;-81
2021/12/10 01:27:02;;;;;;;;;;;9.20;99.90;;;;;;5011815;28;20243;-81
2021/12/10 01:29:33;;;;;;;;;;;8.70;99.90;;;;;;5010912;28;19979;-81
2021/12/10 01:32:00;;;;;;;;;;;7.00;99.90;;;;;;4994246;28;20290;-81
2021/12/10 01:34:26;;;;;;;;;;;9.10;99.90;;;;;;5012130;28;20496;-83
2021/12/10 01:36:52;;;;;;;;;;;5.30;99.90;;;;;;5011991;28;19932;-81
2021/12/10 01:39:19;;;;;;;;;;;5.50;99.90;;;;;;5011680;28;19921;-81
2021/12/10 01:41:53;;;;;;;;;;;7.10;99.90;;;;;;5012209;28;19933;-81
2021/12/10 01:44:27;;;;;;;;;;;6.90;99.90;;;;;;4994019;28;19921;-81
2021/12/10 01:46:53;;;;;;;;;;;8.10;99.90;;;;;;5012156;28;20238;-81
2021/12/10 01:49:19;;;;;;;;;;;7.70;99.90;;;;;;4994076;28;19929;-81
2021/12/10 01:51:45;;;;;;;;;;;6.80;99.90;;;;;;4993889;28;19926;-81
2021/12/10 01:54:16;;;;;;;;;;;8.20;99.90;;;;;;5011570;28;19932;-80
2021/12/10 01:56:42;;;;;;;;;;;8.30;99.90;;;;;;5011990;28;20012;-81
2021/12/10 01:59:09;;;;;;;;;;;6.70;99.90;;;;;;4994124;28;19979;-81
2021/12/10 02:01:40;;;;;;;;;;;6.60;99.90;;;;;;4994240;28;19932;-81
2021/12/10 02:04:06;;;;;;;;;;;7.00;99.90;;;;;;5011634;28;20024;-81
2021/12/10 02:06:34;;;;;;;;;;;7.60;99.90;;;;;;5011769;28;19961;-80
2021/12/10 02:09:12;;;;;;;;;;;4.50;99.90;;;;;;4995390;28;19925;-81
2021/12/10 02:11:38;;;;;;;;;;;8.80;99.90;;;;;;5011498;28;19932;-81
2021/12/10 02:14:05;;;;;;;;;;;8.20;99.90;;;;;;5010960;28;19930;-81
2021/12/10 02:16:30;;;;;;;;;;;8.90;99.90;;;;;;5011691;28;19965;-81
2021/12/10 02:18:56;;;;;;;;;;;6.70;99.90;;;;;;5011619;28;19976;-81
2021/12/10 02:21:23;;;;;;;;;;;8.10;99.90;;;;;;4993222;28;19995;-80
2021/12/10 02:23:55;;;;;;;;;;;6.60;99.90;;;;;;4994192;28;19964;-81
2021/12/10 02:26:22;;;;;;;;;;;7.90;99.90;;;;;;5011339;28;19925;-81
2021/12/10 02:28:47;;;;;;;;;;;8.40;99.90;;;;;;5011666;28;20304;-81
2021/12/10 02:31:13;;;;;;;;;;;6.70;99.90;;;;;;5010943;28;19925;-80
2021/12/10 02:33:39;;;;;;;;;;;9.70;99.90;;;;;;5010699;28;19925;-81
2021/12/10 02:36:10;;;;;;;;;;;7.10;99.90;;;;;;5011632;28;20250;-83
2021/12/10 02:38:36;;;;;;;;;;;8.10;99.90;;;;;;4998369;28;20392;-81
2021/12/10 02:41:02;;;;;;;;;;;9.50;99.90;;;;;;5015250;28;19925;-81
2021/12/10 02:43:28;;;;;;;;;;;8.60;99.90;;;;;;4997479;28;20366;-81
2021/12/10 02:45:55;;;;;;;;;;;7.40;99.90;;;;;;5015224;28;19930;-81
2021/12/10 02:48:21;;;;;;;;;;;6.80;99.90;;;;;;5015028;28;19925;-80
2021/12/10 02:50:47;;;;;;;;;;;7.90;99.90;;;;;;5014804;28;19932;-81
2021/12/10 02:53:16;;;;;;;;;;;6.70;99.90;;;;;;5015037;28;19937;-80
2021/12/10 02:55:42;;;;;;;;;;;8.50;99.90;;;;;;4997653;28;20417;-81
2021/12/10 02:58:10;;;;;;;;;;;8.60;99.90;;;;;;4997336;28;20003;-84
2021/12/10 03:00:56;;;;;;;;;;;6.80;99.90;;;;;;5015031;28;20012;-81
2021/12/10 03:03:22;;;;;;;;;;;9.30;99.90;;;;;;4996080;28;20045;-83
2021/12/10 03:05:55;;;;;;;;;;;8.30;99.90;;;;;;5014823;28;19949;-80
2021/12/10 03:08:21;;;;;;;;;;;6.50;99.90;;;;;;5014765;28;19926;-81
2021/12/10 03:10:48;;;;;;;;;;;6.60;99.90;;;;;;4997049;28;19948;-81
2021/12/10 03:13:15;;;;;;;;;;;8.70;99.90;;;;;;5014463;28;19926;-79
2021/12/10 03:15:44;;;;;;;;;;;6.40;99.90;;;;;;4981852;28;20393;-82
2021/12/10 03:18:12;;;;;;;;;;;8.30;99.90;;;;;;5014710;28;19925;-82
2021/12/10 03:20:40;;;;;;;;;;;9.50;99.90;;;;;;5013220;28;19932;-81
2021/12/10 03:23:05;;;;;;;;;;;5.40;99.90;;;;;;5014779;28;19925;-81
2021/12/10 03:25:31;;;;;;;;;;;9.70;99.90;;;;;;5014373;28;19932;-82
2021/12/10 03:27:57;;;;;;;;;;;8.80;99.90;;;;;;5014814;28;19933;-81
2021/12/10 03:30:25;;;;;;;;;;;10.10;99.90;;;;;;4980775;28;19925;-81
2021/12/10 03:32:51;;;;;;;;;;;6.60;99.90;;;;;;4997153;28;20305;-81
2021/12/10 03:35:23;;;;;;;;;;;7.10;99.90;;;;;;4996018;28;19969;-81
2021/12/10 03:38:00;;;;;;;;;;;7.30;99.90;;;;;;5014639;28;19925;-81
2021/12/10 03:40:26;;;;;;;;;;;7.70;99.90;;;;;;5014174;28;19925;-81
2021/12/10 03:42:58;;;;;;;;;;;10.40;99.90;;;;;;5014314;28;20290;-81
2021/12/10 03:45:31;;;;;;;;;;;9.90;99.90;;;;;;5014365;28;19932;-81
2021/12/10 03:47:58;;;;;;;;;;;7.30;99.90;;;;;;5012257;28;19932;-81
2021/12/10 03:50:27;;;;;;;;;;;8.30;99.90;;;;;;4996232;28;19935;-81
2021/12/10 03:52:56;;;;;;;;;;;9.00;99.90;;;;;;4997114;28;20417;-81
2021/12/10 03:55:26;;;;;;;;;;;6.40;99.90;;;;;;5014034;28;19925;-81
2021/12/10 03:58:12;;;;;;;;;;;7.60;99.90;;;;;;4996735;28;19925;-81
2021/12/10 04:00:40;;;;;;;;;;;6.50;99.90;;;;;;4996522;28;19932;-81
2021/12/10 04:03:08;;;;;;;;;;;7.40;99.90;;;;;;5014004;28;19932;-81
2021/12/10 04:05:36;;;;;;;;;;;7.70;99.90;;;;;;5013555;28;20024;-81
2021/12/10 04:08:17;;;;;;;;;;;6.40;99.90;;;;;;4972063;28;19926;-81
2021/12/10 04:10:44;;;;;;;;;;;7.20;99.90;;;;;;4972385;28;19932;-82
2021/12/10 04:13:10;;;;;;;;;;;3.60;99.90;;;;;;4972610;28;20359;-81
2021/12/10 04:15:38;;;;;;;;;;;8.00;99.90;;;;;;4971765;28;20018;-82
2021/12/10 04:18:05;;;;;;;;;;;8.20;99.90;;;;;;4956310;28;19984;-82
2021/12/10 04:20:32;;;;;;;;;;;7.50;99.90;;;;;;4955770;28;20410;-81
2021/12/10 04:23:14;;;;;;;;;;;6.30;99.90;;;;;;4957793;28;20054;-81
2021/12/10 04:25:43;;;;;;;;;;;4.40;99.90;;;;;;4939775;28;19926;-81
2021/12/10 04:28:11;;;;;;;;;;;3.20;99.90;;;;;;4954407;28;19926;-81
2021/12/10 04:30:40;;;;;;;;;;;8.30;99.90;;;;;;4970982;28;19926;-82
2021/12/10 04:33:10;;;;;;;;;;;9.00;99.90;;;;;;4972168;28;19952;-82
2021/12/10 04:35:36;;;;;;;;;;;6.10;99.90;;;;;;4970700;28;20013;-81
2021/12/10 04:38:02;;;;;;;;;;;6.10;99.90;;;;;;4971980;28;20108;-81
2021/12/10 04:40:31;;;;;;;;;;;7.20;99.90;;;;;;4995920;28;20287;-81
2021/12/10 04:43:03;;;;;;;;;;;7.00;99.90;;;;;;5012300;28;20425;-81
2021/12/10 04:45:36;;;;;;;;;;;5.70;99.90;;;;;;5012536;28;20445;-81
2021/12/10 04:48:45;;;;;;;;;;;5.60;99.90;;;;;;5002722;28;19925;-81
2021/12/10 04:51:19;;;;;;;;;;;5.70;99.90;;;;;;5012721;28;19992;-80
2021/12/10 04:54:05;;;;;;;;;;;5.60;99.90;;;;;;5013254;28;19939;-81
2021/12/10 04:56:32;;;;;;;;;;;8.00;99.90;;;;;;4979103;28;19968;-81
2021/12/10 04:59:08;;;;;;;;;;;8.10;99.90;;;;;;5012609;28;19925;-81
2021/12/10 05:02:01;;;;;;;;;;;8.50;99.90;;;;;;4994549;28;19930;-80
2021/12/10 05:04:28;;;;;;;;;;;5.70;99.90;;;;;;5012171;28;19948;-81
2021/12/10 05:06:54;;;;;;;;;;;8.30;99.90;;;;;;5011153;28;19929;-80
2021/12/10 05:09:26;;;;;;;;;;;5.80;99.90;;;;;;4953876;28;20010;-80
2021/12/10 05:12:12;;;;;;;;;;;5.70;99.90;;;;;;4971234;28;19929;-80
2021/12/10 05:14:59;;;;;;;;;;;6.30;99.90;;;;;;4969871;28;19922;-80
2021/12/10 05:17:32;;;;;;;;;;;5.10;99.90;;;;;;4953668;28;19926;-80
2021/12/10 05:20:06;;;;;;;;;;;7.60;99.90;;;;;;4954412;28;20291;-80
2021/12/10 05:22:39;;;;;;;;;;;8.00;99.90;;;;;;4969425;28;19926;-81
2021/12/10 05:25:50;;;;;;;;;;;5.20;99.90;;;;;;4953732;28;20286;-80
2021/12/10 05:29:19;;;;;;;;;;;8.50;99.90;;;;;;4943353;28;20425;-80
2021/12/10 05:32:00;;;;;;;;;;;5.20;99.90;;;;;;4931670;29;20026;-80
2021/12/10 05:37:37;;;;;;;;;;;6.80;99.90;;;;;;4874430;29;19928;-80
2021/12/10 05:40:51;;;;;;;;;;;7.30;99.90;;;;;;4895728;29;20029;-80
2021/12/10 05:43:53;;;;;;;;;;;5.30;99.90;;;;;;4912854;29;19978;-80
2021/12/10 05:46:49;;;;;;;;;;;7.10;99.90;;;;;;4913691;29;19998;-81
2021/12/10 05:49:16;;;;;;;;;;;5.30;99.90;;;;;;4897191;29;20369;-80
2021/12/10 05:52:00;;;;;;;;;;;8.60;99.90;;;;;;4912291;29;19988;-79
2021/12/10 05:54:50;;;;;;;;;;;5.20;99.90;;;;;;4926348;29;19975;-79
2021/12/10 05:57:43;;;;;;;;;;;6.80;99.90;;;;;;4911895;29;20401;-80
2021/12/10 06:00:54;;;;;;;;;;;5.40;99.90;;;;;;4924677;29;19942;-83
2021/12/10 06:03:51;;;;;;;;;;;3.50;99.90;;;;;;4941736;29;19977;-80
2021/12/10 06:06:40;;;;;;;;;;;4.80;99.90;;;;;;4975609;28;20383;-80
2021/12/10 06:09:14;;;;;;;;;;;8.10;99.90;;;;;;5009284;28;19926;-79
2021/12/10 06:11:50;;;;;;;;;;;5.50;99.90;;;;;;5010899;28;19936;-81
2021/12/10 06:14:43;;;;;;;;;;;5.40;99.90;;;;;;5011796;28;19929;-80
2021/12/10 06:17:32;;;;;;;;;;;5.30;99.90;;;;;;5007454;28;19925;-80
2021/12/10 06:20:05;;;;;;;;;;;4.90;99.90;;;;;;5010875;28;19933;-80
2021/12/10 06:22:53;;;;;;;;;;;5.10;99.90;;;;;;4993736;28;19929;-80
2021/12/10 06:25:29;;;;;;;;;;;5.00;99.90;;;;;;5009962;28;19979;-80
2021/12/10 06:27:56;;;;;;;;;;;4.70;99.90;;;;;;5011979;28;20016;-80
2021/12/10 06:30:24;;;;;;;;;;;5.50;99.90;;;;;;5010697;28;19926;-80
2021/12/10 06:33:12;;;;;;;;;;;5.00;99.90;;;;;;4950562;29;19953;-80
2021/12/10 06:35:49;;;;;;;;;;;8.80;99.90;;;;;;4933619;29;19926;-79
2021/12/10 06:38:24;;;;;;;;;;;5.00;99.90;;;;;;4950774;29;19990;-80
2021/12/10 06:40:57;;;;;;;;;;;4.90;99.90;;;;;;4920769;29;19927;-81
2021/12/10 06:43:24;;;;;;;;;;;6.40;99.90;;;;;;4935290;29;20124;-80
2021/12/10 06:45:53;;;;;;;;;;;7.80;99.90;;;;;;4950591;29;20009;-80
2021/12/10 06:48:34;;;;;;;;;;;9.10;99.90;;;;;;4951091;29;19966;-80
2021/12/10 06:51:03;;;;;;;;;;;2.40;99.90;;;;;;4903933;29;19926;-80
2021/12/10 06:56:23;;;;;;;;;;;4.70;99.90;;;;;;4950762;29;20269;-81
2021/12/10 06:58:57;;;;;;;;;;;4.40;99.90;;;;;;4918424;29;20370;-81
2021/12/10 07:01:29;;;;;;;;;;;4.70;99.90;;;;;;4918787;29;19926;-81
2021/12/10 07:03:59;;;;;;;;;;;7.70;99.90;;;;;;4952325;28;19933;-80
2021/12/10 07:06:32;;;;;;;;;;;5.80;99.90;;;;;;4973086;28;19988;-80
2021/12/10 07:09:10;;;;;;;;;;;6.50;99.90;;;;;;4973295;28;20433;-80
2021/12/10 07:11:52;;;;;;;;;;;5.80;99.90;;;;;;4969251;28;19926;-80
2021/12/10 07:14:18;;;;;;;;;;;4.60;99.90;;;;;;4969285;28;19926;-80
2021/12/10 07:16:46;;;;;;;;;;;8.10;99.90;;;;;;4969229;28;20346;-79
2021/12/10 07:19:22;;;;;;;;;;;4.00;99.90;;;;;;4969618;28;20016;-81
2021/12/10 07:22:01;;;;;;;;;;;4.50;99.90;;;;;;4946226;28;20055;-80
2021/12/10 07:24:36;;;;;;;;;;;4.60;99.90;;;;;;4972217;28;19933;-80
2021/12/10 07:27:11;;;;;;;;;;;5.90;99.90;;;;;;4973238;28;19926;-80
2021/12/10 07:29:38;;;;;;;;;;;7.60;99.90;;;;;;4972720;28;19926;-81
2021/12/10 07:32:04;;;;;;;;;;;6.50;99.90;;;;;;4957418;28;19930;-80
2021/12/10 07:34:29;;;;;;;;;;;4.40;99.90;;;;;;4973048;28;19965;-81
2021/12/10 07:36:57;;;;;;;;;;;4.10;99.90;;;;;;4972760;28;19926;-80
2021/12/10 07:39:23;;;;;;;;;;;4.20;99.90;;;;;;4973231;28;19926;-80
2021/12/10 07:41:49;;;;;;;;;;;6.70;99.90;;;;;;4959799;28;19933;-81
2021/12/10 07:44:26;;;;;;;;;;;8.30;99.90;;;;;;4983976;28;19944;-81
2021/12/10 07:46:59;;;;;;;;;;;5.30;99.90;;;;;;4996623;28;20250;-80
2021/12/10 07:49:32;;;;;;;;;;;4.40;99.90;;;;;;4990565;28;19988;-81
2021/12/10 07:52:01;;;;;;;;;;;4.20;99.90;;;;;;5013876;28;19937;-80
2021/12/10 07:54:28;;;;;;;;;;;4.30;99.90;;;;;;4996752;28;19956;-80
2021/12/10 07:56:54;;;;;;;;;;;6.70;99.90;;;;;;4952863;28;19978;-80
2021/12/10 07:59:19;;;;;;;;;;;6.00;99.90;;;;;;4937756;29;20266;-80
2021/12/10 08:01:45;;;;;;;;;;;4.20;99.90;;;;;;4953963;29;19926;-80
2021/12/10 08:04:11;;;;;;;;;;;7.40;99.90;;;;;;4937026;29;20006;-80
2021/12/10 08:06:37;;;;;;;;;;;7.70;99.90;;;;;;4929931;29;19938;-81
2021/12/10 08:09:04;;;;;;;;;;;7.50;99.90;;;;;;4952678;29;19926;-80
2021/12/10 08:11:30;;;;;;;;;;;5.90;99.90;;;;;;4952915;29;19927;-80
2021/12/10 08:13:57;;;;;;;;;;;6.40;99.90;;;;;;4952969;29;19933;-80
2021/12/10 08:16:30;;;;;;;;;;;5.20;99.90;;;;;;4922470;29;19933;-80
2021/12/10 08:19:01;;;;;;;;;;;6.50;99.90;;;;;;4952517;29;20001;-80
2021/12/10 08:21:27;;;;;;;;;;;3.70;99.90;;;;;;4936344;29;20395;-80
2021/12/10 08:23:53;;;;;;;;;;;7.40;99.90;;;;;;4936675;29;19981;-80
2021/12/10 08:26:19;;;;;;;;;;;5.00;99.90;;;;;;4952790;29;20052;-81
2021/12/10 08:28:45;;;;;;;;;;;4.50;99.90;;;;;;4952305;29;20284;-81
2021/12/10 08:31:15;;;;;;;;;;;8.00;99.90;;;;;;4936763;29;19927;-80
2021/12/10 08:33:42;;;;;;;;;;;8.00;99.90;;;;;;4965861;28;19925;-83
2021/12/10 08:36:09;;;;;;;;;;;5.50;99.90;;;;;;5013126;28;20378;-80
2021/12/10 08:38:35;;;;;;;;;;;4.60;99.90;;;;;;4995732;28;20002;-80
2021/12/10 08:41:05;;;;;;;;;;;6.20;99.90;;;;;;4995336;28;19925;-80
2021/12/10 08:43:32;;;;;;;;;;;5.40;99.90;;;;;;5013316;28;19925;-81
2021/12/10 08:46:22;;;;;;;;;;;4.60;99.90;;;;;;5012984;28;19925;-80
2021/12/10 08:48:48;;;;;;;;;;;2.70;99.90;;;;;;4995563;28;20027;-81
2021/12/10 08:51:25;;;;;;;;;;;5.70;99.90;;;;;;4995348;28;20426;-80
2021/12/10 08:53:51;;;;;;;;;;;7.60;99.90;;;;;;5006590;28;19926;-80
2021/12/10 08:56:17;;;;;;;;;;;7.00;99.90;;;;;;5012996;28;19926;-80
2021/12/10 08:58:43;;;;;;;;;;;6.30;99.90;;;;;;5013015;28;19929;-80
2021/12/10 09:01:10;;;;;;;;;;;7.90;99.90;;;;;;5012895;28;19925;-80
2021/12/10 09:03:36;;;;;;;;;;;7.90;99.90;;;;;;4995559;28;19952;-80
2021/12/10 09:06:17;;;;;;;;;;;7.10;99.90;;;;;;4979001;28;19943;-80
2021/12/10 09:08:42;;;;;;;;;;;5.70;99.90;;;;;;4995358;28;20247;-80
2021/12/10 09:11:14;;;;;;;;;;;5.70;99.90;;;;;;5012975;28;19976;-80
2021/12/10 09:13:42;;;;;;;;;;;5.90;99.90;;;;;;5012772;28;19926;-80
2021/12/10 09:16:12;;;;;;;;;;;4.90;99.90;;;;;;5011594;28;19957;-81
2021/12/10 09:18:46;;;;;;;;;;;7.60;99.90;;;;;;5012328;28;19926;-80
2021/12/10 09:21:11;;;;;;;;;;;5.10;99.90;;;;;;4978390;28;19925;-80
2021/12/10 09:23:39;;;;;;;;;;;5.00;99.90;;;;;;4994286;28;19925;-80
2021/12/10 09:26:07;;;;;;;;;;;5.00;99.90;;;;;;4962129;28;19948;-80
2021/12/10 09:28:39;;;;;;;;;;;5.20;99.90;;;;;;5012634;28;20032;-80
2021/12/10 09:31:26;;;;;;;;;;;7.80;99.90;;;;;;4994371;28;19936;-80
2021/12/10 09:33:54;;;;;;;;;;;5.20;99.90;;;;;;4993924;28;20390;-81
2021/12/10 09:36:26;;;;;;;;;;;8.10;99.90;;;;;;4977569;28;19941;-81
2021/12/10 09:38:53;;;;;;;;;;;5.30;99.90;;;;;;4994416;28;20430;-82
2021/12/10 09:41:21;;;;;;;;;;;9.10;99.90;;;;;;4994349;28;19937;-80
2021/12/10 09:43:54;;;;;;;;;;;7.30;99.90;;;;;;4962285;28;19948;-80
2021/12/10 09:46:20;;;;;;;;;;;6.30;99.90;;;;;;4993176;28;19992;-80
2021/12/10 09:48:47;;;;;;;;;;;5.90;99.90;;;;;;5011712;28;19933;-80
2021/12/10 09:51:33;;;;;;;;;;;5.70;99.90;;;;;;5010405;28;19922;-80
2021/12/10 09:54:01;;;;;;;;;;;9.00;99.90;;;;;;5010555;28;20021;-82
2021/12/10 09:56:27;;;;;;;;;;;6.00;99.90;;;;;;5011760;28;19994;-80
2021/12/10 09:59:10;;;;;;;;;;;6.60;99.90;;;;;;4978781;28;19930;-80
2021/12/10 10:01:44;;;;;;;;;;;6.60;99.90;;;;;;5010637;28;19925;-81
2021/12/10 10:04:10;;;;;;;;;;;6.60;99.90;;;;;;4994031;28;19925;-81
2021/12/10 10:06:38;;;;;;;;;;;6.90;99.90;;;;;;4977884;28;19926;-80
2021/12/10 10:09:06;;;;;;;;;;;5.60;99.90;;;;;;4993822;28;19995;-80
2021/12/10 10:11:41;;;;;;;;;;;6.50;99.90;;;;;;4993078;28;19926;-80
2021/12/10 10:14:07;;;;;;;;;;;7.50;99.90;;;;;;5011234;28;19932;-80
2021/12/10 10:16:35;;;;;;;;;;;9.50;99.90;;;;;;5011395;28;20028;-80
2021/12/10 10:19:01;;;;;;;;;;;7.10;99.90;;;;;;4961387;28;19951;-80
2021/12/10 10:21:28;;;;;;;;;;;7.00;99.90;;;;;;5011523;28;20303;-81
2021/12/10 10:23:54;;;;;;;;;;;4.00;99.90;;;;;;5010384;28;19937;-83
2021/12/10 10:26:32;;;;;;;;;;;9.10;99.90;;;;;;4994125;28;19925;-80
2021/12/10 10:29:04;;;;;;;;;;;8.40;99.90;;;;;;4993430;28;19925;-80
2021/12/10 10:31:32;;;;;;;;;;;6.30;99.90;;;;;;4993186;28;19926;-80
2021/12/10 10:34:00;;;;;;;;;;;7.60;99.90;;;;;;4993281;28;19936;-81
2021/12/10 10:36:34;;;;;;;;;;;9.00;99.90;;;;;;4994500;28;19980;-80
2021/12/10 10:39:09;;;;;;;;;;;6.00;99.90;;;;;;5011113;28;19980;-81
2021/12/10 10:41:36;;;;;;;;;;;7.40;99.90;;;;;;5011541;28;19933;-80
2021/12/10 10:44:21;;;;;;;;;;;6.50;99.90;;;;;;5011079;28;19941;-80
2021/12/10 10:47:16;;;;;;;;;;;7.60;99.90;;;;;;5009884;28;19925;-80
2021/12/10 10:50:18;;;;;;;;;;;6.70;99.90;;;;;;5010693;28;19926;-80
2021/12/10 10:52:53;;;;;;;;;;;6.20;99.90;;;;;;5011643;28;20198;-81
2021/12/10 10:55:21;;;;;;;;;;;7.10;99.90;;;;;;4993727;28;20267;-80
2021/12/10 10:57:56;;;;;;;;;;;6.40;99.90;;;;;;4996107;28;19949;-80
2021/12/10 11:00:45;;;;;;;;;;;6.30;99.90;;;;;;4981548;28;19989;-81
2021/12/10 11:03:14;;;;;;;;;;;6.40;99.90;;;;;;4997777;28;19925;-81
2021/12/10 11:05:50;;;;;;;;;;;6.30;99.90;;;;;;5014549;28;19925;-81
2021/12/10 11:08:25;;;;;;;;;;;6.30;99.90;;;;;;5014944;28;19925;-81
2021/12/10 11:11:18;;;;;;;;;;;7.80;99.90;;;;;;5014979;28;19925;-81
2021/12/10 11:13:49;;;;;;;;;;;6.30;99.90;;;;;;4993822;28;19945;-80
2021/12/10 11:16:18;;;;;;;;;;;6.60;99.90;;;;;;4995918;28;19932;-80
2021/12/10 11:18:56;;;;;;;;;;;7.50;99.90;;;;;;5014665;28;20412;-80
2021/12/10 11:21:34;;;;;;;;;;;6.30;99.90;;;;;;5013459;28;19932;-80
2021/12/10 11:24:23;;;;;;;;;;;6.40;99.90;;;;;;5014012;28;19979;-79
2021/12/10 11:27:03;;;;;;;;;;;6.50;99.90;;;;;;5014111;28;19936;-80
2021/12/10 11:29:40;;;;;;;;;;;9.00;99.90;;;;;;4997199;28;20345;-80
2021/12/10 11:32:09;;;;;;;;;;;6.50;99.90;;;;;;5013956;28;19941;-81
2021/12/10 11:34:43;;;;;;;;;;;6.40;99.90;;;;;;4996470;28;20016;-81
2021/12/10 11:37:09;;;;;;;;;;;6.50;99.90;;;;;;5014427;28;20328;-80
2021/12/10 11:39:46;;;;;;;;;;;7.60;99.90;;;;;;5014488;28;19948;-80
2021/12/10 11:42:32;;;;;;;;;;;6.60;99.90;;;;;;4996612;28;19932;-80
2021/12/10 11:45:17;;;;;;;;;;;6.60;99.90;;;;;;5012820;28;20024;-84
2021/12/10 11:47:50;;;;;;;;;;;6.70;99.90;;;;;;4996732;28;20220;-81
2021/12/10 11:50:18;;;;;;;;;;;6.50;99.90;;;;;;4996130;28;19925;-80
2021/12/10 11:52:43;;;;;;;;;;;9.40;99.90;;;;;;4996823;28;19925;-80
2021/12/10 11:55:10;;;;;;;;;;;8.70;99.90;;;;;;4980158;28;19926;-80
2021/12/10 11:57:37;;;;;;;;;;;6.60;99.90;;;;;;5014206;28;19936;-80
2021/12/10 12:00:08;;;;;;;;;;;6.70;99.90;;;;;;4995794;28;19952;-80
2021/12/10 12:02:54;;;;;;;;;;;6.70;99.90;;;;;;5013751;28;20302;-80
2021/12/10 12:05:24;;;;;;;;;;;6.80;99.90;;;;;;4978681;28;20510;-80
2021/12/10 12:07:51;;;;;;;;;;;8.20;99.90;;;;;;5012781;28;20089;-80
2021/12/10 12:10:22;;;;;;;;;;;10.20;99.90;;;;;;5012506;28;19926;-81
2021/12/10 12:12:47;;;;;;;;;;;7.00;99.90;;;;;;4996328;28;19926;-80
2021/12/10 12:15:32;;;;;;;;;;;8.50;99.90;;;;;;4995674;28;19929;-80
2021/12/10 12:18:03;;;;;;;;;;;6.90;99.90;;;;;;4996122;28;19932;-80
2021/12/10 12:20:37;;;;;;;;;;;6.80;99.90;;;;;;5013313;28;19925;-80
2021/12/10 12:25:51;;;;;;;;;;;6.90;99.90;;;;;;5014227;28;19945;-81
2021/12/10 12:28:17;;;;;;;;;;;7.00;99.90;;;;;;4996118;28;19925;-80
2021/12/10 12:30:51;;;;;;;;;;;8.00;99.90;;;;;;4996252;28;19925;-80
2021/12/10 12:33:17;;;;;;;;;;;7.00;99.90;;;;;;4995045;28;19932;-80
2021/12/10 12:35:42;;;;;;;;;;;7.20;99.90;;;;;;4995720;28;19925;-80
2021/12/10 12:38:10;;;;;;;;;;;10.50;99.90;;;;;;4995582;28;19948;-80
2021/12/10 12:40:37;;;;;;;;;;;6.90;99.90;;;;;;4995547;28;19933;-80
2021/12/10 12:43:06;;;;;;;;;;;7.00;99.90;;;;;;5013256;28;20028;-80
2021/12/10 12:45:32;;;;;;;;;;;7.80;99.90;;;;;;5012997;28;19925;-80
2021/12/10 12:47:58;;;;;;;;;;;6.90;99.90;;;;;;5013004;28;19937;-80
2021/12/10 12:50:25;;;;;;;;;;;7.10;99.90;;;;;;5012382;28;20028;-80
2021/12/10 12:52:55;;;;;;;;;;;7.90;99.90;;;;;;5012509;28;20412;-80
2021/12/10 12:55:24;;;;;;;;;;;7.20;99.90;;;;;;5012335;28;20020;-80
2021/12/10 12:57:52;;;;;;;;;;;7.10;99.90;;;;;;5011724;28;19925;-80
2021/12/10 13:00:26;;;;;;;;;;;7.10;99.90;;;;;;5011764;28;20439;-81
2021/12/10 13:02:54;;;;;;;;;;;7.30;99.90;;;;;;5012943;28;19925;-80
2021/12/10 13:05:29;;;;;;;;;;;8.50;99.90;;;;;;5011635;28;19926;-80
2021/12/10 13:08:10;;;;;;;;;;;7.40;99.90;;;;;;4995245;28;19966;-80
2021/12/10 13:10:38;;;;;;;;;;;7.50;99.90;;;;;;5012774;28;19932;-79
2021/12/10 13:13:15;;;;;;;;;;;10.50;99.90;;;;;;5011111;28;19929;-80
2021/12/10 13:15:50;;;;;;;;;;;10.00;99.90;;;;;;5012602;28;20400;-80
2021/12/10 13:18:17;;;;;;;;;;;7.50;99.90;;;;;;5011066;28;19929;-80
2021/12/10 13:20:46;;;;;;;;;;;10.00;99.90;;;;;;5012104;28;19926;-80
2021/12/10 13:23:15;;;;;;;;;;;7.60;99.90;;;;;;5012444;28;20012;-80
2021/12/10 13:25:40;;;;;;;;;;;9.60;99.90;;;;;;5011686;28;19983;-80
2021/12/10 13:28:06;;;;;;;;;;;7.90;99.90;;;;;;4995451;28;19925;-80
2021/12/10 13:30:34;;;;;;;;;;;7.40;99.90;;;;;;5012341;28;20348;-80
2021/12/10 13:33:00;;;;;;;;;;;7.40;99.90;;;;;;5012578;28;20036;-80
2021/12/10 13:35:27;;;;;;;;;;;6.20;99.90;;;;;;5012010;28;20036;-80
2021/12/10 13:37:55;;;;;;;;;;;10.10;99.90;;;;;;5012600;28;20021;-80
2021/12/10 13:40:22;;;;;;;;;;;7.40;99.90;;;;;;4994895;28;19925;-80
2021/12/10 13:42:48;;;;;;;;;;;9.70;99.90;;;;;;5012236;28;19925;-80
2021/12/10 13:45:17;;;;;;;;;;;7.80;99.90;;;;;;5011853;28;19980;-80
2021/12/10 13:47:50;;;;;;;;;;;7.50;99.90;;;;;;4993863;28;19977;-82
2021/12/10 13:50:18;;;;;;;;;;;9.10;99.90;;;;;;5011706;28;19925;-80
2021/12/10 13:52:44;;;;;;;;;;;9.10;99.90;;;;;;4994534;28;19936;-80
2021/12/10 13:55:29;;;;;;;;;;;7.30;99.90;;;;;;5011637;28;19926;-78
2021/12/10 13:58:13;;;;;;;;;;;8.60;99.90;;;;;;5010615;28;20305;-79
2021/12/10 14:00:42;;;;;;;;;;;7.20;99.90;;;;;;5010408;28;19932;-79
2021/12/10 14:03:08;;;;;;;;;;;10.30;99.90;;;;;;4977855;28;19925;-80
2021/12/10 14:05:37;;;;;;;;;;;8.20;99.90;;;;;;5010711;28;20301;-79
2021/12/10 14:08:09;;;;;;;;;;;9.90;99.90;;;;;;5011823;28;19926;-79
2021/12/10 14:10:41;;;;;;;;;;;7.10;99.90;;;;;;5011216;28;19929;-79
2021/12/10 14:13:08;;;;;;;;;;;7.00;99.90;;;;;;5011818;28;20024;-79
2021/12/10 14:15:47;;;;;;;;;;;9.50;99.90;;;;;;5011046;28;20409;-80
2021/12/10 14:18:20;;;;;;;;;;;7.00;99.90;;;;;;4994266;28;19987;-81
2021/12/10 14:20:51;;;;;;;;;;;8.10;99.90;;;;;;4993866;28;20374;-79
2021/12/10 14:23:17;;;;;;;;;;;6.90;99.90;;;;;;5011134;28;19977;-79
2021/12/10 14:25:50;;;;;;;;;;;9.60;99.90;;;;;;4993971;28;19976;-79
2021/12/10 14:28:31;;;;;;;;;;;6.90;99.90;;;;;;5011518;28;19926;-81
2021/12/10 14:30:57;;;;;;;;;;;6.60;99.90;;;;;;5011468;28;19933;-79
2021/12/10 14:33:25;;;;;;;;;;;6.70;99.90;;;;;;4996417;28;19925;-79
2021/12/10 14:35:54;;;;;;;;;;;6.50;99.90;;;;;;4997655;28;19925;-79
2021/12/10 14:38:34;;;;;;;;;;;6.40;99.90;;;;;;4997474;28;20024;-79
2021/12/10 14:41:26;;;;;;;;;;;6.40;99.90;;;;;;4997262;28;19979;-79
2021/12/10 14:43:55;;;;;;;;;;;6.30;99.90;;;;;;4958826;28;19926;-79
2021/12/10 14:46:44;;;;;;;;;;;6.30;99.90;;;;;;4997554;28;19969;-79
2021/12/10 14:49:12;;;;;;;;;;;6.20;99.90;;;;;;5014036;28;19929;-79
2021/12/10 14:51:39;;;;;;;;;;;7.70;99.90;;;;;;5014536;28;20143;-79
2021/12/10 14:54:16;;;;;;;;;;;9.10;99.90;;;;;;5015334;28;20394;-79
2021/12/10 14:56:48;;;;;;;;;;;6.10;99.90;;;;;;4997544;28;19929;-79
2021/12/10 14:59:15;;;;;;;;;;;9.50;99.90;;;;;;5015047;28;19925;-79
2021/12/10 15:02:00;;;;;;;;;;;7.80;99.90;;;;;;5014661;28;19932;-78
2021/12/10 15:04:29;;;;;;;;;;;3.30;99.90;;;;;;4980315;28;19926;-81
2021/12/10 15:07:06;;;;;;;;;;;5.80;99.90;;;;;;4997565;28;19926;-78
2021/12/10 15:09:52;;;;;;;;;;;7.50;99.90;;;;;;5014426;28;19933;-79
2021/12/10 15:12:18;;;;;;;;;;;9.20;99.90;;;;;;4996686;28;19925;-80
2021/12/10 15:14:52;;;;;;;;;;;6.10;99.90;;;;;;4997868;28;19936;-79
2021/12/10 15:17:18;;;;;;;;;;;5.20;99.90;;;;;;4996786;28;19926;-81
2021/12/10 15:19:45;;;;;;;;;;;5.40;99.90;;;;;;4996699;28;20286;-79